Time;durP1;ratioP1;P1;durP2;ratioP2;P2;SDS_P1;SDS_P2;PMS_P1;PMS_P2;Temp;Humidity;BMP_temperature;BMP_pressure;BME280_temperature;BME280_humidity;BME280_pressure;Samples;Min_cycle;Max_cycle;Signal;HPM_P1;HPM_P2
2022/03/05 07:23:52;;;;;;;;;;;;;;;3.02;45.29;96880.47;4249616;27;11249;-73
2022/03/05 07:25:54;;;;;;;;;;;;;;;3.07;45.22;96878.25;4248725;27;5640;-74
2022/03/05 07:27:55;;;;;;;;;;;;;;;3.27;45.01;96879.78;4247898;27;5664;-73
2022/03/05 07:29:57;;;;;;;;;;;;;;;3.42;44.83;96882.75;4247815;27;5700;-74
2022/03/05 07:31:59;;;;;;;;;;;;;;;3.65;44.68;96885.78;4260564;27;6269;-74
2022/03/05 07:34:00;;;;;;;;;;;;;;;3.77;44.61;96888.03;4265555;27;5384;-73
2022/03/05 07:36:05;;;;;;;;;;;;;;;3.74;44.41;96890.13;4265509;27;7227;-74
2022/03/05 07:38:07;;;;;;;;;;;;;;;3.75;44.52;96897.00;4265536;27;6308;-74
2022/03/05 07:40:09;;;;;;;;;;;;;;;3.62;44.95;96893.91;4265412;27;5628;-72
2022/03/05 07:42:11;;;;;;;;;;;;;;;3.85;44.74;96895.16;4265302;27;5624;-73
2022/03/05 07:44:13;;;;;;;;;;;;;;;3.97;44.53;96891.34;4264524;27;5085;-74
2022/03/05 07:46:14;;;;;;;;;;;;;;;4.01;44.59;96889.22;4265235;27;7700;-73
2022/03/05 07:48:19;;;;;;;;;;;;;;;4.05;44.58;96904.47;4265269;27;5635;-74
2022/03/05 07:50:21;;;;;;;;;;;;;;;3.93;45.33;96902.22;4265485;27;5631;-74
2022/03/05 07:52:23;;;;;;;;;;;;;;;3.69;47.40;96901.00;4265422;27;5628;-73
2022/03/05 07:54:26;;;;;;;;;;;;;;;3.76;46.78;96901.25;4265560;27;5734;-74
2022/03/05 07:56:28;;;;;;;;;;;;;;;3.98;46.64;96906.06;4260414;27;5690;-73
2022/03/05 07:58:30;;;;;;;;;;;;;;;4.13;47.30;96908.97;4258696;27;5659;-74
2022/03/05 08:00:32;;;;;;;;;;;;;;;4.12;47.91;96906.50;4266301;27;5643;-73
2022/03/05 08:02:33;;;;;;;;;;;;;;;4.08;48.27;96904.19;4266503;27;5628;-72
2022/03/05 08:04:35;;;;;;;;;;;;;;;4.01;49.08;96908.38;4266612;27;5734;-73
2022/03/05 08:06:57;;;;;;;;;;;;;;;3.65;50.09;96910.13;4265078;27;5619;-74
2022/03/05 08:08:59;;;;;;;;;;;;;;;3.98;49.25;96908.66;4264897;27;5903;-74
2022/03/05 08:11:02;;;;;;;;;;;;;;;4.21;50.23;96911.66;4264916;27;5632;-75
2022/03/05 08:13:04;;;;;;;;;;;;;;;4.37;50.31;96908.34;4264228;27;5623;-73
2022/03/05 08:15:06;;;;;;;;;;;;;;;4.27;49.66;96905.81;4250617;27;5714;-74
2022/03/05 08:17:08;;;;;;;;;;;;;;;4.32;50.00;96903.56;4247669;27;5708;-74
2022/03/05 08:19:10;;;;;;;;;;;;;;;4.46;49.71;96904.81;4243785;27;5760;-75
2022/03/05 08:21:12;;;;;;;;;;;;;;;4.46;49.68;96904.81;4243464;27;5759;-74
2022/03/05 08:23:14;;;;;;;;;;;;;;;4.54;49.78;96910.13;4247039;27;5668;-74
2022/03/05 08:25:16;;;;;;;;;;;;;;;4.62;49.58;96909.34;4249681;27;5684;-74
2022/03/05 08:27:19;;;;;;;;;;;;;;;4.66;49.50;96906.28;4237504;27;5708;-74
2022/03/05 08:29:20;;;;;;;;;;;;;;;4.55;50.51;96909.16;4243383;27;5850;-73
2022/03/05 08:31:22;;;;;;;;;;;;;;;4.60;49.72;96908.69;4250168;27;5677;-74
2022/03/05 08:33:24;;;;;;;;;;;;;;;4.70;49.46;96909.41;4249919;27;5688;-73
2022/03/05 08:35:26;;;;;;;;;;;;;;;4.66;49.91;96908.91;4250028;27;5691;-75
2022/03/05 08:37:32;;;;;;;;;;;;;;;4.72;49.45;96904.00;4231481;28;5751;-75
2022/03/05 08:39:34;;;;;;;;;;;;;;;4.58;49.76;96914.06;4250238;27;5695;-75
2022/03/05 08:41:35;;;;;;;;;;;;;;;4.83;49.17;96901.13;4250496;27;5676;-74
2022/03/05 08:43:37;;;;;;;;;;;;;;;4.92;48.93;96902.84;4250183;27;6373;-75
2022/03/05 08:45:39;;;;;;;;;;;;;;;4.89;48.91;96903.16;4250062;27;6333;-75
2022/03/05 08:47:44;;;;;;;;;;;;;;;4.80;48.92;96897.03;4236536;27;5923;-75
2022/03/05 08:49:46;;;;;;;;;;;;;;;4.87;49.19;96905.06;4234432;27;5773;-74
2022/03/05 08:51:47;;;;;;;;;;;;;;;4.77;49.72;96886.06;4221663;28;5698;-75
2022/03/05 08:53:49;;;;;;;;;;;;;;;4.90;49.16;96887.28;4227429;28;5751;-74
2022/03/05 08:55:51;;;;;;;;;;;;;;;4.74;49.56;96891.56;4228640;28;6388;-75
2022/03/05 08:57:53;;;;;;;;;;;;;;;4.85;49.53;96889.53;4227844;28;5688;-76
2022/03/05 08:59:55;;;;;;;;;;;;;;;4.89;49.90;96888.25;4227371;28;6647;-75
2022/03/05 09:01:56;;;;;;;;;;;;;;;4.89;50.12;96887.44;4233205;28;5095;-75
2022/03/05 09:03:58;;;;;;;;;;;;;;;4.86;52.14;96885.09;4232595;28;5775;-75
2022/03/05 09:06:00;;;;;;;;;;;;;;;5.06;50.74;96886.53;4232516;28;5894;-75
2022/03/05 09:08:02;;;;;;;;;;;;;;;4.75;52.92;96882.75;4232834;28;5720;-74
2022/03/05 09:10:05;;;;;;;;;;;;;;;4.88;53.03;96885.78;4232909;28;5690;-73
2022/03/05 09:12:07;;;;;;;;;;;;;;;5.13;51.66;96884.94;4231448;28;5711;-74
2022/03/05 09:14:09;;;;;;;;;;;;;;;4.80;52.34;96880.50;4216167;28;5959;-75
2022/03/05 09:16:11;;;;;;;;;;;;;;;4.72;52.70;96878.66;4227417;28;5799;-75
2022/03/05 09:18:12;;;;;;;;;;;;;;;4.97;51.75;96876.97;4222190;27;5735;-75
2022/03/05 09:20:14;;;;;;;;;;;;;;;5.10;50.44;96874.78;4216273;28;6450;-75
2022/03/05 09:22:17;;;;;;;;;;;;;;;5.04;51.14;96878.00;4232872;27;5696;-75
2022/03/05 09:24:19;;;;;;;;;;;;;;;5.00;50.87;96886.34;4223680;27;5851;-74
2022/03/05 09:26:20;;;;;;;;;;;;;;;5.06;49.85;96886.53;4224607;27;5930;-75
2022/03/05 09:28:22;;;;;;;;;;;;;;;4.97;50.90;96877.78;4223309;27;5873;-75
2022/03/05 09:30:23;;;;;;;;;;;;;;;4.88;51.23;96883.19;4220535;27;5814;-75
2022/03/05 09:32:25;;;;;;;;;;;;;;;4.96;51.01;96880.56;4220173;27;5728;-74
2022/03/05 09:34:27;;;;;;;;;;;;;;;4.95;50.87;96885.00;4225405;28;5765;-75
2022/03/05 09:36:29;;;;;;;;;;;;;;;4.91;52.06;96880.25;4230314;27;5747;-74
2022/03/05 09:38:30;;;;;;;;;;;;;;;5.12;51.47;96878.06;4221731;27;5826;-70
2022/03/05 09:40:32;;;;;;;;;;;;;;;5.06;51.87;96875.22;4219059;27;5769;-71
2022/03/05 09:42:34;;;;;;;;;;;;;;;5.17;51.18;96873.16;4214522;28;5769;-72
2022/03/05 09:44:38;;;;;;;;;;;;;;;5.21;50.98;96874.50;4214898;28;5773;-70
2022/03/05 09:46:41;;;;;;;;;;;;;;;5.19;51.15;96873.81;4223964;28;5752;-70
2022/03/05 09:48:43;;;;;;;;;;;;;;;5.17;51.28;96870.53;4231481;28;5751;-70
2022/03/05 09:50:45;;;;;;;;;;;;;;;5.07;51.31;96877.69;4225092;28;5740;-70
2022/03/05 09:52:47;;;;;;;;;;;;;;;5.01;51.56;96872.25;4225332;28;5733;-69
2022/03/05 09:54:49;;;;;;;;;;;;;;;5.03;51.87;96865.06;4214824;28;5821;-71
2022/03/05 09:56:51;;;;;;;;;;;;;;;5.00;52.66;96871.44;4214985;28;5801;-70
2022/03/05 09:58:52;;;;;;;;;;;;;;;5.26;51.39;96872.22;4221932;28;5707;-70
2022/03/05 10:00:54;;;;;;;;;;;;;;;5.18;51.33;96873.97;4239018;27;5732;-69
2022/03/05 10:02:56;;;;;;;;;;;;;;;5.09;51.19;96872.28;4248680;27;5725;-69
2022/03/05 10:05:16;;;;;;;;;;;;;;;5.26;51.29;96866.16;4248212;27;5746;-70
2022/03/05 10:07:19;;;;;;;;;;;;;;;5.32;50.96;96868.13;4248392;27;5770;-70
2022/03/05 10:09:22;;;;;;;;;;;;;;;5.05;50.85;96874.41;4248359;27;5763;-70
2022/03/05 10:11:25;;;;;;;;;;;;;;;5.19;50.52;96873.81;4248414;27;5710;-70
2022/03/05 10:13:30;;;;;;;;;;;;;;;5.44;49.83;96873.91;4247771;27;5723;-69
2022/03/05 10:15:36;;;;;;;;;;;;;;;5.48;48.46;96873.44;4244529;27;5810;-69
2022/03/05 10:17:54;;;;;;;;;;;;;;;5.24;49.21;96868.09;4231412;28;5775;-69
2022/03/05 10:20:05;;;;;;;;;;;;;;;5.44;49.28;96866.88;4231355;28;5739;-69
2022/03/05 10:22:10;;;;;;;;;;;;;;;5.55;48.71;96865.75;4230568;28;5747;-69
2022/03/05 10:24:12;;;;;;;;;;;;;;;5.31;49.18;96868.28;4231409;28;5756;-69
2022/03/05 10:26:49;;;;;;;;;;;;;;;5.41;49.80;96863.72;4230959;28;5811;-69
2022/03/05 10:28:51;;;;;;;;;;;;;;;5.63;49.53;96857.91;4230655;28;5752;-70
2022/03/05 10:30:58;;;;;;;;;;;;;;;5.77;49.02;96861.69;4231136;28;5737;-70
2022/03/05 10:33:00;;;;;;;;;;;;;;;5.22;49.87;96862.22;4231214;28;5768;-70
2022/03/05 10:35:02;;;;;;;;;;;;;;;5.52;49.45;96860.81;4230924;28;5788;-71
2022/03/05 10:37:04;;;;;;;;;;;;;;;5.56;49.36;96867.41;4230550;28;6283;-70
2022/03/05 10:39:11;;;;;;;;;;;;;;;5.48;49.59;96859.50;4230807;28;6425;-70
2022/03/05 10:41:17;;;;;;;;;;;;;;;5.65;49.61;96861.16;4230880;28;5812;-71
2022/03/05 10:43:19;;;;;;;;;;;;;;;5.68;48.76;96855.63;4230472;28;5673;-70
2022/03/05 10:45:22;;;;;;;;;;;;;;;5.70;48.77;96856.28;4230543;28;5748;-71
2022/03/05 10:47:24;;;;;;;;;;;;;;;5.72;48.92;96862.19;4230539;28;5087;-70
2022/03/05 10:49:33;;;;;;;;;;;;;;;5.69;49.05;96857.25;4230732;28;5760;-69
2022/03/05 10:51:37;;;;;;;;;;;;;;;5.68;48.87;96855.63;4230913;28;5755;-69
2022/03/05 10:53:38;;;;;;;;;;;;;;;5.75;49.13;96861.03;4230797;28;5893;-70
2022/03/05 10:55:40;;;;;;;;;;;;;;;5.68;49.35;96854.81;4230569;28;5748;-70
2022/03/05 10:57:58;;;;;;;;;;;;;;;5.79;48.39;96854.50;4230763;28;5749;-71
2022/03/05 11:00:07;;;;;;;;;;;;;;;5.55;48.66;96852.66;4236875;27;5692;-70
2022/03/05 11:02:12;;;;;;;;;;;;;;;5.65;48.66;96855.94;4247919;27;5722;-70
2022/03/05 11:04:14;;;;;;;;;;;;;;;5.76;47.87;96847.75;4228195;28;6401;-70
2022/03/05 11:06:17;;;;;;;;;;;;;;;5.52;48.48;96847.69;4230474;28;5724;-70
2022/03/05 11:08:19;;;;;;;;;;;;;;;5.82;47.96;96849.75;4247064;27;5751;-70
2022/03/05 11:10:24;;;;;;;;;;;;;;;6.02;47.34;96852.09;4247494;27;6518;-70
2022/03/05 11:12:29;;;;;;;;;;;;;;;5.98;45.43;96848.13;4247776;27;5993;-70
2022/03/05 11:14:30;;;;;;;;;;;;;;;5.87;45.59;96843.19;4247380;27;5734;-70
2022/03/05 11:16:33;;;;;;;;;;;;;;;5.66;45.95;96847.06;4247494;27;5730;-70
2022/03/05 11:18:39;;;;;;;;;;;;;;;5.85;45.18;96846.78;4247812;27;5727;-70
2022/03/05 11:20:42;;;;;;;;;;;;;;;5.96;45.81;96837.81;4247268;27;5760;-71
2022/03/05 11:22:49;;;;;;;;;;;;;;;6.04;46.19;96837.81;4241892;27;5751;-70
2022/03/05 11:24:51;;;;;;;;;;;;;;;6.07;47.26;96842.72;4230718;27;5817;-70
2022/03/05 11:26:55;;;;;;;;;;;;;;;5.85;48.11;96845.97;4230663;27;5776;-70
2022/03/05 11:29:03;;;;;;;;;;;;;;;5.82;48.26;96841.88;4230095;28;5748;-70
2022/03/05 11:31:16;;;;;;;;;;;;;;;5.93;47.59;96842.56;4230518;28;5728;-70
2022/03/05 11:33:43;;;;;;;;;;;;;;;5.77;48.38;96838.91;4230430;28;5782;-70
2022/03/05 11:35:45;;;;;;;;;;;;;;;5.81;49.42;96829.75;4230523;28;5877;-70
2022/03/05 11:37:47;;;;;;;;;;;;;;;6.00;48.27;96838.28;4230537;28;5860;-70
2022/03/05 11:39:49;;;;;;;;;;;;;;;6.13;47.62;96836.03;4230144;27;5772;-71
2022/03/05 11:41:57;;;;;;;;;;;;;;;5.96;48.08;96831.75;4230286;28;5744;-70
2022/03/05 11:44:15;;;;;;;;;;;;;;;5.99;47.84;96823.53;4230272;27;5775;-70
2022/03/05 11:46:26;;;;;;;;;;;;;;;6.13;46.79;96828.97;4230547;28;5768;-70
2022/03/05 11:48:38;;;;;;;;;;;;;;;6.05;46.67;96820.28;4230335;28;5755;-70
2022/03/05 11:50:49;;;;;;;;;;;;;;;6.04;47.03;96813.38;4228625;28;5867;-70
2022/03/05 11:53:02;;;;;;;;;;;;;;;6.13;47.00;96820.28;4229596;28;5737;-70
2022/03/05 11:55:11;;;;;;;;;;;;;;;6.39;47.20;96817.47;4226693;28;5764;-71
2022/03/05 11:57:15;;;;;;;;;;;;;;;6.32;47.02;96819.09;4213320;28;5777;-71
2022/03/05 11:59:30;;;;;;;;;;;;;;;6.27;46.16;96819.59;4214649;28;5909;-70
2022/03/05 12:01:39;;;;;;;;;;;;;;;6.19;46.66;96824.03;4230247;28;5801;-70
2022/03/05 12:03:45;;;;;;;;;;;;;;;6.16;46.19;96816.50;4233530;28;6512;-70
2022/03/05 12:05:53;;;;;;;;;;;;;;;5.83;47.51;96814.66;4233289;28;5773;-70
2022/03/05 12:07:55;;;;;;;;;;;;;;;6.17;46.80;96818.94;4233633;27;6548;-70
2022/03/05 12:09:59;;;;;;;;;;;;;;;6.12;46.54;96808.13;4233138;27;5760;-70
2022/03/05 12:12:02;;;;;;;;;;;;;;;6.24;46.19;96806.00;4247002;27;5840;-71
2022/03/05 12:14:05;;;;;;;;;;;;;;;6.25;45.98;96815.50;4250115;27;5738;-71
2022/03/05 12:16:43;;;;;;;;;;;;;;;6.30;46.24;96800.06;4250025;27;6534;-71
2022/03/05 12:18:46;;;;;;;;;;;;;;;6.31;46.35;96805.16;4223072;28;5755;-71
2022/03/05 12:20:48;;;;;;;;;;;;;;;6.10;46.79;96803.03;4232704;28;5743;-71
2022/03/05 12:22:55;;;;;;;;;;;;;;;5.97;46.48;96796.66;4227910;27;5220;-71
2022/03/05 12:24:56;;;;;;;;;;;;;;;6.27;46.04;96809.09;4216091;28;5755;-70
2022/03/05 12:27:01;;;;;;;;;;;;;;;6.39;45.94;96802.53;4223092;27;5855;-70
2022/03/05 12:29:07;;;;;;;;;;;;;;;6.08;45.69;96798.94;4224768;28;5740;-70
2022/03/05 12:31:27;;;;;;;;;;;;;;;5.99;45.41;96794.66;4230793;27;5763;-71
2022/03/05 12:33:33;;;;;;;;;;;;;;;5.90;45.72;96796.50;4230063;27;5757;-71
2022/03/05 12:35:36;;;;;;;;;;;;;;;6.30;45.73;96793.00;4230868;27;5861;-70
2022/03/05 12:37:38;;;;;;;;;;;;;;;6.12;45.60;96789.78;4225350;28;5740;-73
2022/03/05 12:39:45;;;;;;;;;;;;;;;6.46;45.20;96791.38;4232199;27;5799;-71
2022/03/05 12:41:47;;;;;;;;;;;;;;;6.47;45.11;96782.50;4232195;27;5730;-71
2022/03/05 12:43:48;;;;;;;;;;;;;;;6.51;45.76;96789.03;4220811;28;6588;-70
2022/03/05 12:45:50;;;;;;;;;;;;;;;6.49;45.33;96780.50;4225811;28;5812;-69
2022/03/05 12:47:55;;;;;;;;;;;;;;;6.51;45.00;96775.91;4224253;28;5726;-70
2022/03/05 12:49:57;;;;;;;;;;;;;;;6.57;45.08;96777.84;4225563;28;5781;-69
2022/03/05 12:51:58;;;;;;;;;;;;;;;6.58;45.60;96774.25;4222262;27;5790;-70
2022/03/05 12:54:02;;;;;;;;;;;;;;;6.61;44.42;96779.16;4222221;28;6549;-70
2022/03/05 12:56:04;;;;;;;;;;;;;;;6.63;44.61;96777.19;4219365;27;5764;-72
2022/03/05 12:58:09;;;;;;;;;;;;;;;6.34;44.45;96768.09;4219657;27;5766;-72
2022/03/05 13:00:11;;;;;;;;;;;;;;;6.57;44.77;96772.59;4230206;28;5769;-73
2022/03/05 13:02:17;;;;;;;;;;;;;;;6.67;44.21;96767.97;4222828;28;5089;-71
2022/03/05 13:04:19;;;;;;;;;;;;;;;6.61;43.87;96763.41;4215763;27;7786;-73
2022/03/05 13:06:20;;;;;;;;;;;;;;;6.61;44.19;96763.41;4215495;28;5809;-70
2022/03/05 13:08:25;;;;;;;;;;;;;;;6.73;44.07;96767.31;4230374;27;5730;-68
2022/03/05 13:10:27;;;;;;;;;;;;;;;6.91;44.10;96760.03;4230944;27;5809;-73
2022/03/05 13:12:39;;;;;;;;;;;;;;;6.79;43.60;96763.16;4228417;27;5759;-70
2022/03/05 13:14:45;;;;;;;;;;;;;;;6.57;44.00;96756.84;4229697;27;5757;-72
2022/03/05 13:16:51;;;;;;;;;;;;;;;6.85;43.23;96752.81;4223348;27;5089;-74
2022/03/05 13:19:05;;;;;;;;;;;;;;;6.80;42.89;96746.44;4228439;27;5744;-72
2022/03/05 13:21:08;;;;;;;;;;;;;;;6.92;42.58;96751.16;4222024;27;5744;-69
2022/03/05 13:23:11;;;;;;;;;;;;;;;6.94;42.96;96743.91;4223023;27;5993;-67
2022/03/05 13:25:13;;;;;;;;;;;;;;;7.07;42.74;96742.53;4214736;28;5792;-68
2022/03/05 13:27:15;;;;;;;;;;;;;;;7.09;42.93;96745.81;4221459;28;5757;-70
2022/03/05 13:29:17;;;;;;;;;;;;;;;6.90;42.74;96742.59;4223856;27;5778;-67
2022/03/05 13:31:27;;;;;;;;;;;;;;;7.11;42.51;96733.28;4228262;27;5756;-66
2022/03/05 13:33:50;;;;;;;;;;;;;;;7.18;42.58;96739.50;4228242;27;5804;-70
2022/03/05 13:35:52;;;;;;;;;;;;;;;7.10;41.97;96735.09;4218619;28;5774;-68
2022/03/05 13:37:57;;;;;;;;;;;;;;;7.03;43.46;96739.44;4246954;27;5902;-69
2022/03/05 13:40:02;;;;;;;;;;;;;;;7.02;42.96;96732.50;4229720;27;6565;-68
2022/03/05 13:42:12;;;;;;;;;;;;;;;7.01;43.07;96723.81;4217791;28;6464;-69
2022/03/05 13:44:27;;;;;;;;;;;;;;;7.22;43.64;96727.66;4223624;27;5821;-68
2022/03/05 13:46:31;;;;;;;;;;;;;;;7.17;41.79;96732.63;4215513;27;5793;-69
2022/03/05 13:48:45;;;;;;;;;;;;;;;6.96;42.34;96725.34;4218752;27;5809;-69
2022/03/05 13:50:47;;;;;;;;;;;;;;;7.18;42.74;96723.75;4219358;27;5768;-66
2022/03/05 13:52:56;;;;;;;;;;;;;;;7.26;42.10;96715.81;4218732;27;5758;-70
2022/03/05 13:55:13;;;;;;;;;;;;;;;7.29;42.19;96715.44;4219425;27;5847;-68
2022/03/05 13:57:33;;;;;;;;;;;;;;;7.39;42.96;96721.31;4218305;28;5773;-69
2022/03/05 13:59:42;;;;;;;;;;;;;;;7.47;42.50;96717.78;4220177;27;5791;-68
2022/03/05 14:01:45;;;;;;;;;;;;;;;7.36;41.53;96708.50;4227151;27;6410;-68
2022/03/05 14:04:06;;;;;;;;;;;;;;;7.38;42.15;96711.78;4220620;27;5799;-73
2022/03/05 14:06:12;;;;;;;;;;;;;;;7.26;41.70;96710.56;4221059;27;5816;-73
2022/03/05 14:08:14;;;;;;;;;;;;;;;7.44;41.65;96708.44;4217520;27;6513;-73
2022/03/05 14:10:18;;;;;;;;;;;;;;;7.49;41.83;96705.28;4214611;27;5754;-72
2022/03/05 14:12:24;;;;;;;;;;;;;;;7.46;41.70;96706.44;4221264;27;5112;-79
2022/03/05 14:14:41;;;;;;;;;;;;;;;7.25;42.21;96709.72;4224828;27;7724;-70
2022/03/05 14:16:47;;;;;;;;;;;;;;;7.45;42.40;96696.09;4215955;27;5799;-79
2022/03/05 14:18:48;;;;;;;;;;;;;;;7.48;41.57;96701.84;4224832;27;5844;-70
2022/03/05 14:20:50;;;;;;;;;;;;;;;7.38;42.01;96703.06;4229531;27;5720;-69
2022/03/05 14:23:04;;;;;;;;;;;;;;;7.24;42.04;96691.47;4228237;27;5646;-73
2022/03/05 14:25:12;;;;;;;;;;;;;;;7.22;41.57;96701.34;4227669;28;6349;-71
2022/03/05 14:27:15;;;;;;;;;;;;;;;6.99;42.59;96690.81;4222732;28;7003;-71
2022/03/05 14:29:16;;;;;;;;;;;;;;;7.24;42.73;96686.22;4232371;28;5664;-71
2022/03/05 14:31:18;;;;;;;;;;;;;;;7.27;42.71;96696.41;4232051;28;5731;-71
2022/03/05 14:33:21;;;;;;;;;;;;;;;7.35;42.51;96688.44;4232796;28;5653;-72
2022/03/05 14:35:24;;;;;;;;;;;;;;;7.44;41.96;96692.66;4225828;28;5678;-72
2022/03/05 14:37:25;;;;;;;;;;;;;;;7.48;41.79;96691.31;4215882;28;5777;-70
2022/03/05 14:39:27;;;;;;;;;;;;;;;7.48;41.23;96690.50;4220010;27;5736;-72
2022/03/05 14:41:29;;;;;;;;;;;;;;;7.21;40.24;96689.19;4232056;28;5660;-71
2022/03/05 14:43:30;;;;;;;;;;;;;;;7.32;40.68;96686.16;4232365;27;5666;-71
2022/03/05 14:45:34;;;;;;;;;;;;;;;7.32;41.08;96683.53;4229576;28;5693;-70
2022/03/05 14:47:37;;;;;;;;;;;;;;;7.48;40.99;96683.44;4231747;27;5732;-71
2022/03/05 14:49:39;;;;;;;;;;;;;;;7.49;41.99;96690.31;4216062;28;5678;-73
2022/03/05 14:51:41;;;;;;;;;;;;;;;7.44;40.25;96682.13;4217192;28;5669;-72
2022/03/05 14:53:48;;;;;;;;;;;;;;;7.48;41.38;96688.69;4231333;28;5747;-71
2022/03/05 14:55:53;;;;;;;;;;;;;;;7.42;41.96;96678.88;4224636;28;5948;-70
2022/03/05 14:57:55;;;;;;;;;;;;;;;7.38;40.44;96677.59;4231516;27;5845;-70
2022/03/05 14:59:57;;;;;;;;;;;;;;;7.39;40.92;96679.22;4231034;28;5638;-70
2022/03/05 15:01:59;;;;;;;;;;;;;;;7.30;40.97;96686.34;4223461;28;5193;-70
2022/03/05 15:04:01;;;;;;;;;;;;;;;7.48;40.33;96678.19;4232472;28;5080;-69
2022/03/05 15:06:02;;;;;;;;;;;;;;;7.49;38.86;96685.06;4215582;28;5923;-67
2022/03/05 15:08:05;;;;;;;;;;;;;;;7.35;38.68;96683.19;4223620;28;5649;-68
2022/03/05 15:10:09;;;;;;;;;;;;;;;7.39;38.95;96688.94;4217686;28;5673;-70
2022/03/05 15:12:10;;;;;;;;;;;;;;;7.39;37.36;96681.84;4230927;27;5685;-68
2022/03/05 15:14:12;;;;;;;;;;;;;;;7.48;37.47;96685.25;4214867;28;5770;-69
2022/03/05 15:16:14;;;;;;;;;;;;;;;7.49;35.79;96682.44;4229661;27;5637;-72
2022/03/05 15:18:15;;;;;;;;;;;;;;;7.53;36.30;96675.81;4218278;27;5769;-68
2022/03/05 15:20:17;;;;;;;;;;;;;;;7.57;35.01;96676.28;4236620;27;5662;-69
2022/03/05 15:22:19;;;;;;;;;;;;;;;7.60;36.27;96673.31;4226699;27;5664;-71
2022/03/05 15:24:21;;;;;;;;;;;;;;;7.59;35.86;96675.13;4232296;28;5704;-68
2022/03/05 15:26:22;;;;;;;;;;;;;;;7.54;35.78;96666.94;4235987;27;5643;-73
2022/03/05 15:28:24;;;;;;;;;;;;;;;7.51;35.59;96675.19;4248922;27;5800;-71
2022/03/05 15:30:26;;;;;;;;;;;;;;;7.58;36.40;96668.19;4246912;27;5714;-74
2022/03/05 15:32:27;;;;;;;;;;;;;;;7.54;34.53;96666.94;4249593;27;6502;-73
2022/03/05 15:34:29;;;;;;;;;;;;;;;7.63;34.50;96664.25;4251216;27;5740;-74
2022/03/05 15:36:31;;;;;;;;;;;;;;;7.52;35.26;96666.28;4235244;27;5715;-67
2022/03/05 15:38:33;;;;;;;;;;;;;;;7.61;35.24;96661.78;4235507;28;5661;-66
2022/03/05 15:40:34;;;;;;;;;;;;;;;7.62;36.64;96659.97;4228914;28;5749;-66
2022/03/05 15:42:36;;;;;;;;;;;;;;;7.63;38.74;96662.44;4219463;28;5684;-74
2022/03/05 15:44:42;;;;;;;;;;;;;;;7.56;41.24;96664.13;4233027;28;5678;-75
2022/03/05 15:46:45;;;;;;;;;;;;;;;7.59;42.22;96659.34;4235600;27;5671;-74
2022/03/05 15:48:47;;;;;;;;;;;;;;;7.42;40.37;96657.81;4225921;27;5712;-74
2022/03/05 15:50:48;;;;;;;;;;;;;;;7.33;42.71;96663.31;4220262;27;5662;-74
2022/03/05 15:52:50;;;;;;;;;;;;;;;7.43;39.39;96662.09;4235399;28;5714;-70
2022/03/05 15:54:52;;;;;;;;;;;;;;;7.49;40.31;96660.56;4231970;27;5731;-71
2022/03/05 15:56:54;;;;;;;;;;;;;;;7.52;41.07;96658.41;4234656;27;5736;-73
2022/03/05 15:58:56;;;;;;;;;;;;;;;7.51;42.02;96662.03;4222955;28;5761;-73
2022/03/05 16:01:02;;;;;;;;;;;;;;;7.44;39.43;96666.34;4229934;28;5653;-74
2022/03/05 16:03:04;;;;;;;;;;;;;;;7.37;36.50;96665.44;4229296;28;5662;-77
2022/03/05 16:05:06;;;;;;;;;;;;;;;7.41;37.34;96660.63;4217990;28;6471;-69
2022/03/05 16:07:08;;;;;;;;;;;;;;;7.41;37.18;96656.19;4232354;27;5653;-69
2022/03/05 16:09:10;;;;;;;;;;;;;;;7.42;38.55;96657.81;4227275;27;5648;-71
2022/03/05 16:11:11;;;;;;;;;;;;;;;7.36;38.71;96663.81;4233895;28;5935;-71
2022/03/05 16:13:13;;;;;;;;;;;;;;;7.31;39.19;96668.75;4234562;27;5805;-71
2022/03/05 16:15:15;;;;;;;;;;;;;;;7.41;39.80;96664.09;4226006;27;5764;-72
2022/03/05 16:17:17;;;;;;;;;;;;;;;7.35;39.29;96661.31;4228364;28;5636;-73
2022/03/05 16:19:19;;;;;;;;;;;;;;;7.30;39.94;96664.50;4228978;27;5703;-73
2022/03/05 16:21:21;;;;;;;;;;;;;;;7.28;41.13;96666.47;4225773;28;5645;-73
2022/03/05 16:23:23;;;;;;;;;;;;;;;7.48;40.27;96667.66;4228152;27;5614;-73
2022/03/05 16:25:25;;;;;;;;;;;;;;;7.52;39.09;96661.03;4218657;27;7110;-73
2022/03/05 16:27:27;;;;;;;;;;;;;;;7.52;38.21;96668.09;4217812;28;5844;-74
2022/03/05 16:29:34;;;;;;;;;;;;;;;7.22;36.68;96672.44;4221820;28;5657;-75
2022/03/05 16:31:36;;;;;;;;;;;;;;;7.20;38.22;96675.25;4224033;28;5772;-76
2022/03/05 16:33:39;;;;;;;;;;;;;;;7.36;38.61;96666.44;4229581;27;5755;-71
2022/03/05 16:35:41;;;;;;;;;;;;;;;7.46;40.43;96664.34;4224582;27;5665;-81
2022/03/05 16:37:46;;;;;;;;;;;;;;;7.45;40.84;96665.34;4224397;28;5762;-75
2022/03/05 16:39:52;;;;;;;;;;;;;;;7.47;41.21;96673.88;4231957;28;5957;-69
2022/03/05 16:41:53;;;;;;;;;;;;;;;7.41;41.37;96671.97;4225750;28;5740;-69
2022/03/05 16:43:55;;;;;;;;;;;;;;;7.33;39.97;96672.03;4231410;28;5892;-69
2022/03/05 16:45:57;;;;;;;;;;;;;;;7.32;39.45;96680.09;4230627;28;5112;-70
2022/03/05 16:47:59;;;;;;;;;;;;;;;7.45;40.80;96672.44;4231632;27;5877;-70
2022/03/05 16:50:03;;;;;;;;;;;;;;;7.47;39.49;96681.78;4231618;28;5793;-69
2022/03/05 16:52:08;;;;;;;;;;;;;;;7.23;34.53;96672.25;4230409;28;5752;-70
2022/03/05 16:54:10;;;;;;;;;;;;;;;7.15;37.04;96677.59;4230252;27;6485;-72
2022/03/05 16:56:11;;;;;;;;;;;;;;;7.06;38.97;96681.25;4227548;27;5777;-72
2022/03/05 16:58:13;;;;;;;;;;;;;;;7.24;38.95;96683.59;4217798;28;5760;-72
2022/03/05 17:00:15;;;;;;;;;;;;;;;7.23;38.52;96689.84;4231939;28;5752;-72
2022/03/05 17:02:17;;;;;;;;;;;;;;;7.16;39.17;96689.75;4231072;27;5932;-71
2022/03/05 17:04:22;;;;;;;;;;;;;;;7.28;38.79;96688.34;4232395;28;5764;-72
2022/03/05 17:06:24;;;;;;;;;;;;;;;7.28;37.43;96690.16;4229600;27;6491;-73
2022/03/05 17:08:25;;;;;;;;;;;;;;;7.17;37.48;96688.75;4228373;28;6448;-73
2022/03/05 17:10:27;;;;;;;;;;;;;;;6.92;36.72;96688.06;4225986;27;5699;-73
2022/03/05 17:12:31;;;;;;;;;;;;;;;6.90;38.55;96690.03;4224184;28;5883;-73
2022/03/05 17:14:32;;;;;;;;;;;;;;;7.05;36.35;96691.94;4220314;27;5989;-73
2022/03/05 17:16:39;;;;;;;;;;;;;;;6.93;36.60;96697.59;4221219;27;5706;-72
2022/03/05 17:18:41;;;;;;;;;;;;;;;7.11;37.10;96697.31;4225131;27;6612;-72
2022/03/05 17:20:48;;;;;;;;;;;;;;;7.17;37.65;96698.44;4232698;27;5774;-72
2022/03/05 17:22:50;;;;;;;;;;;;;;;7.14;36.79;96701.44;4238623;27;5721;-72
2022/03/05 17:24:52;;;;;;;;;;;;;;;7.11;37.02;96696.50;4233472;27;5695;-72
2022/03/05 17:26:54;;;;;;;;;;;;;;;7.19;37.39;96704.34;4228937;27;5155;-72
2022/03/05 17:28:55;;;;;;;;;;;;;;;7.21;37.09;96697.09;4232440;27;5740;-75
2022/03/05 17:30:57;;;;;;;;;;;;;;;7.18;36.20;96713.22;4235911;27;5867;-75
2022/03/05 17:33:02;;;;;;;;;;;;;;;7.15;36.40;96703.06;4232502;27;5756;-74
2022/03/05 17:35:06;;;;;;;;;;;;;;;7.14;36.19;96701.44;4233413;27;6413;-73
2022/03/05 17:37:08;;;;;;;;;;;;;;;7.16;36.61;96713.41;4229054;27;5744;-72
2022/03/05 17:39:09;;;;;;;;;;;;;;;7.19;36.81;96704.34;4234017;27;5757;-73
2022/03/05 17:41:11;;;;;;;;;;;;;;;7.20;36.60;96706.78;4229907;27;5792;-72
2022/03/05 17:43:13;;;;;;;;;;;;;;;7.20;36.27;96705.97;4229627;27;5811;-72
2022/03/05 17:45:17;;;;;;;;;;;;;;;7.20;35.27;96696.28;4232463;27;5722;-71
2022/03/05 17:47:19;;;;;;;;;;;;;;;7.19;35.20;96709.59;4226007;27;5629;-73
2022/03/05 17:49:21;;;;;;;;;;;;;;;7.17;35.52;96707.16;4235397;27;5744;-72
2022/03/05 17:51:23;;;;;;;;;;;;;;;7.21;34.24;96710.25;4266968;27;6439;-72
2022/03/05 17:53:24;;;;;;;;;;;;;;;7.13;30.99;96705.84;4229670;27;5714;-72
2022/03/05 17:55:30;;;;;;;;;;;;;;;7.03;31.68;96714.97;4228905;27;5764;-72
2022/03/05 17:57:33;;;;;;;;;;;;;;;6.86;30.58;96715.03;4226883;27;5872;-72
2022/03/05 17:59:35;;;;;;;;;;;;;;;6.94;31.58;96722.88;4232217;27;5798;-73
2022/03/05 18:01:37;;;;;;;;;;;;;;;6.96;32.38;96720.06;4222058;27;5786;-72
2022/03/05 18:03:40;;;;;;;;;;;;;;;6.91;30.99;96720.59;4234706;27;5810;-73
2022/03/05 18:05:42;;;;;;;;;;;;;;;6.87;29.09;96716.66;4233910;27;5784;-72
2022/03/05 18:07:44;;;;;;;;;;;;;;;6.81;28.97;96717.38;4225725;27;5784;-72
2022/03/05 18:09:46;;;;;;;;;;;;;;;6.78;29.84;96716.88;4224268;27;6423;-72
2022/03/05 18:11:47;;;;;;;;;;;;;;;6.70;28.46;96717.75;4233251;27;5112;-72
2022/03/05 18:13:49;;;;;;;;;;;;;;;6.64;28.02;96716.59;4230735;27;5734;-71
2022/03/05 18:15:51;;;;;;;;;;;;;;;6.35;27.29;96721.63;4223876;27;5770;-72
2022/03/05 18:17:53;;;;;;;;;;;;;;;6.29;28.59;96720.50;4220445;27;5774;-72
2022/03/05 18:19:55;;;;;;;;;;;;;;;6.37;28.26;96717.84;4233313;27;5723;-73
2022/03/05 18:21:58;;;;;;;;;;;;;;;6.42;28.40;96725.22;4223744;27;5759;-71
2022/03/05 18:24:00;;;;;;;;;;;;;;;6.46;28.55;96725.72;4222822;27;6455;-72
2022/03/05 18:26:03;;;;;;;;;;;;;;;6.35;27.70;96721.63;4228321;27;5804;-73